createdAt,value
2018-06-25T00:01:29.723Z,2.60
2018-06-25T00:03:58.821Z,2.30
2018-06-25T00:06:27.868Z,2.58
2018-06-25T00:08:58.287Z,3.02
2018-06-25T00:11:27.415Z,2.67
2018-06-25T00:13:59.240Z,2.50
2018-06-25T00:16:29.888Z,2.58
2018-06-25T00:19:00.714Z,3.10
2018-06-25T00:21:32.217Z,2.72
2018-06-25T00:24:01.872Z,3.08
2018-06-25T00:26:33.166Z,3.37
2018-06-25T00:29:03.568Z,3.70
2018-06-25T00:31:35.143Z,3.52
2018-06-25T00:34:07.075Z,4.20
2018-06-25T00:36:36.631Z,4.65
2018-06-25T00:39:10.009Z,4.45
2018-06-25T00:41:39.204Z,4.62
2018-06-25T00:44:08.665Z,5.00
2018-06-25T00:46:38.481Z,5.03
2018-06-25T00:49:07.593Z,5.28
2018-06-25T00:51:37.715Z,5.60
2018-06-25T00:54:09.399Z,5.83
2018-06-25T00:56:40.798Z,4.85
2018-06-25T00:59:22.175Z,4.90
2018-06-25T01:01:51.617Z,5.15
2018-06-25T01:04:20.902Z,5.22
2018-06-25T01:06:52.949Z,5.47
2018-06-25T01:09:23.647Z,5.70
2018-06-25T01:11:54.387Z,5.75
2018-06-25T01:14:23.602Z,5.83
2018-06-25T01:16:53.568Z,6.00
2018-06-25T01:19:22.639Z,5.67
2018-06-25T01:21:52.012Z,5.83
2018-06-25T01:24:22.088Z,5.85
2018-06-25T01:26:52.251Z,6.60
2018-06-25T01:29:21.207Z,7.67
2018-06-25T01:31:51.480Z,7.87
2018-06-25T01:34:21.821Z,7.97
2018-06-25T01:36:51.264Z,7.83
2018-06-25T01:39:21.057Z,7.97
2018-06-25T01:41:51.694Z,7.42
2018-06-25T01:44:22.583Z,7.55
2018-06-25T01:46:51.836Z,6.83
2018-06-25T01:49:22.599Z,7.08
2018-06-25T01:51:51.954Z,6.80
2018-06-25T01:54:21.487Z,6.85
2018-06-25T01:56:51.596Z,6.55
2018-06-25T01:59:22.159Z,6.92
2018-06-25T02:01:51.763Z,6.40
2018-06-25T02:04:21.996Z,6.95
2018-06-25T02:06:53.886Z,7.28
2018-06-25T02:09:23.666Z,7.37
2018-06-25T02:11:53.748Z,6.83
2018-06-25T02:14:24.616Z,6.87
2018-06-25T02:16:54.683Z,6.85
2018-06-25T02:19:24.152Z,6.83
2018-06-25T02:21:54.042Z,6.53
2018-06-25T02:24:23.990Z,6.03
2018-06-25T02:26:54.502Z,5.85
2018-06-25T02:29:24.544Z,6.20
2018-06-25T02:31:53.583Z,6.12
2018-06-25T02:34:24.122Z,6.05
2018-06-25T02:36:53.183Z,5.85
2018-06-25T02:39:23.891Z,6.00
2018-06-25T02:41:53.543Z,6.00
2018-06-25T02:44:23.872Z,6.37
2018-06-25T02:46:53.208Z,6.53
2018-06-25T02:49:24.318Z,5.45
2018-06-25T02:51:53.367Z,5.83
2018-06-25T02:54:22.379Z,6.10
2018-06-25T02:56:51.879Z,6.08
2018-06-25T02:59:23.386Z,6.45
2018-06-25T03:01:55.327Z,7.47
2018-06-25T03:04:26.035Z,6.87
2018-06-25T03:06:55.771Z,6.70
2018-06-25T03:09:26.529Z,7.30
2018-06-25T03:11:55.679Z,6.72
2018-06-25T03:14:26.549Z,6.87
2018-06-25T03:16:56.044Z,6.42
2018-06-25T03:19:26.156Z,6.20
2018-06-25T03:21:55.971Z,5.58
2018-06-25T03:24:26.657Z,5.95
2018-06-25T03:26:55.722Z,5.62
2018-06-25T03:29:27.759Z,5.65
2018-06-25T03:31:57.539Z,5.33
2018-06-25T03:34:28.235Z,4.80
2018-06-25T03:36:58.741Z,5.08
2018-06-25T03:39:30.208Z,4.90
2018-06-25T03:41:59.583Z,4.85
2018-06-25T03:44:30.520Z,4.90
2018-06-25T03:46:59.507Z,5.25
2018-06-25T03:49:29.425Z,5.53
2018-06-25T03:52:02.114Z,5.00
2018-06-25T03:54:31.119Z,5.00
2018-06-25T03:57:03.409Z,5.70
2018-06-25T03:59:32.831Z,5.33
2018-06-25T04:02:04.318Z,5.85
2018-06-25T04:04:34.039Z,5.75
2018-06-25T04:07:03.763Z,5.83
2018-06-25T04:09:33.869Z,6.25
2018-06-25T04:12:03.746Z,6.30
2018-06-25T04:14:35.004Z,7.28
2018-06-25T04:17:06.311Z,7.67
2018-06-25T04:19:36.704Z,8.83
2018-06-25T04:22:06.501Z,9.20
2018-06-25T04:24:35.644Z,10.48
2018-06-25T04:27:06.277Z,11.73
2018-06-25T04:29:35.483Z,10.93
2018-06-25T04:32:06.171Z,10.43
2018-06-25T04:34:35.941Z,11.40
2018-06-25T04:37:06.328Z,10.93
2018-06-25T04:39:35.864Z,10.88
2018-06-25T04:42:06.767Z,11.18
2018-06-25T04:44:36.591Z,11.03
2018-06-25T04:47:06.207Z,11.55
2018-06-25T04:49:35.275Z,11.95
2018-06-25T04:52:05.156Z,11.53
2018-06-25T04:54:35.635Z,12.13
2018-06-25T04:57:06.792Z,12.37
2018-06-25T04:59:37.389Z,12.60
2018-06-25T05:02:09.087Z,12.98
2018-06-25T05:04:40.044Z,13.25
2018-06-25T05:07:10.308Z,14.23
2018-06-25T05:09:39.262Z,13.35
2018-06-25T05:12:10.159Z,13.03
2018-06-25T05:14:40.491Z,13.35
2018-06-25T05:17:09.467Z,12.98
2018-06-25T05:19:39.961Z,13.65
2018-06-25T05:22:11.913Z,12.43
2018-06-25T05:24:42.768Z,14.20
2018-06-25T05:27:12.092Z,13.70
2018-06-25T05:29:41.116Z,14.47
2018-06-25T05:32:11.416Z,13.78
2018-06-25T05:34:42.460Z,15.45
2018-06-25T05:37:14.151Z,14.95
2018-06-25T05:39:43.763Z,15.35
2018-06-25T05:42:17.875Z,16.62
2018-06-25T05:44:48.442Z,17.37
2018-06-25T05:47:18.022Z,16.50
2018-06-25T05:49:47.626Z,16.45
2018-06-25T05:52:17.332Z,16.50
2018-06-25T05:54:47.535Z,17.70
2018-06-25T05:57:18.428Z,17.75
2018-06-25T05:59:48.575Z,18.20
2018-06-25T06:02:18.420Z,18.92
2018-06-25T06:04:47.435Z,16.67
2018-06-25T06:07:18.347Z,17.02
2018-06-25T06:09:47.948Z,18.15
2018-06-25T06:12:18.681Z,17.60
2018-06-25T06:14:47.808Z,17.32
2018-06-25T06:17:18.130Z,13.50
2018-06-25T06:19:47.963Z,14.10
2018-06-25T06:22:18.762Z,13.03
2018-06-25T06:24:48.759Z,12.58
2018-06-25T06:27:20.441Z,11.35
2018-06-25T06:29:49.497Z,11.38
2018-06-25T06:32:22.524Z,11.25
2018-06-25T06:34:51.546Z,10.78
2018-06-25T06:37:24.106Z,10.00
2018-06-25T06:39:56.458Z,10.78
2018-06-25T06:42:26.884Z,10.58
2018-06-25T06:44:58.032Z,10.40
2018-06-25T06:47:29.623Z,10.32
2018-06-25T06:50:00.670Z,10.25
2018-06-25T06:52:31.302Z,10.40
2018-06-25T06:55:01.867Z,11.30
2018-06-25T06:57:32.252Z,10.50
2018-06-25T07:00:02.372Z,10.63
2018-06-25T07:02:32.416Z,10.28
2018-06-25T07:05:01.996Z,10.72
2018-06-25T07:07:32.611Z,9.25
2018-06-25T07:10:02.782Z,10.25
2018-06-25T07:12:33.791Z,10.38
2018-06-25T07:15:04.767Z,10.18
2018-06-25T07:17:33.821Z,10.38
2018-06-25T07:20:03.552Z,9.98
2018-06-25T07:22:34.271Z,10.23
2018-06-25T07:25:03.382Z,9.30
2018-06-25T07:27:34.432Z,8.60
2018-06-25T07:30:03.591Z,8.93
2018-06-25T07:32:35.723Z,9.68
2018-06-25T07:35:06.369Z,8.98
2018-06-25T07:37:35.453Z,8.73
2018-06-25T07:40:05.074Z,9.33
2018-06-25T07:42:36.188Z,9.05
2018-06-25T07:45:07.247Z,8.75
2018-06-25T07:47:38.158Z,9.28
2018-06-25T07:50:08.550Z,8.65
2018-06-25T07:52:38.497Z,9.35
2018-06-25T07:55:07.523Z,9.23
2018-06-25T07:57:38.110Z,8.40
2018-06-25T08:00:07.882Z,7.65
2018-06-25T08:02:39.566Z,7.10
2018-06-25T08:05:09.920Z,6.80
2018-06-25T08:07:39.377Z,7.30
2018-06-25T08:10:10.979Z,6.83
2018-06-25T08:12:41.096Z,6.83
2018-06-25T08:15:10.811Z,5.75
2018-06-25T08:17:41.187Z,5.75
2018-06-25T08:20:11.744Z,5.28
2018-06-25T08:22:43.400Z,5.60
2018-06-25T08:25:13.967Z,4.97
2018-06-25T08:27:46.163Z,4.55
2018-06-25T08:30:16.437Z,4.92
2018-06-25T08:32:46.128Z,4.75
2018-06-25T08:35:15.209Z,4.70
2018-06-25T08:37:45.705Z,5.35
2018-06-25T08:40:17.829Z,5.33
2018-06-25T08:42:49.330Z,4.90
2018-06-25T08:45:20.048Z,5.25
2018-06-25T08:47:49.088Z,5.00
2018-06-25T08:50:18.678Z,4.70
2018-06-25T08:52:47.998Z,4.50
2018-06-25T08:55:19.574Z,4.30
2018-06-25T08:57:50.245Z,4.72
2018-06-25T09:00:20.834Z,4.70
2018-06-25T09:02:50.626Z,4.95
2018-06-25T09:05:20.804Z,4.35
2018-06-25T09:07:49.892Z,4.53
2018-06-25T09:10:20.988Z,8.03
2018-06-25T09:12:51.404Z,3.90
2018-06-25T09:15:22.027Z,4.35
2018-06-25T09:17:52.447Z,4.58
2018-06-25T09:20:22.032Z,4.67
2018-06-25T09:22:51.841Z,4.92
2018-06-25T09:25:23.411Z,4.22
2018-06-25T09:27:55.684Z,4.75
2018-06-25T09:30:25.857Z,4.50
2018-06-25T09:32:55.443Z,4.28
2018-06-25T09:35:27.173Z,4.10
2018-06-25T09:37:58.436Z,4.33
2018-06-25T09:40:27.870Z,4.85
2018-06-25T09:42:56.906Z,4.78
2018-06-25T09:45:28.033Z,4.47
2018-06-25T09:47:58.756Z,4.30
2018-06-25T09:50:27.783Z,4.20
2018-06-25T09:52:57.757Z,4.22
2018-06-25T09:55:28.468Z,3.58
2018-06-25T09:57:58.110Z,3.98
2018-06-25T10:00:34.258Z,4.80
2018-06-25T10:03:03.424Z,4.15
2018-06-25T10:05:32.451Z,4.25
2018-06-25T10:08:02.181Z,3.98
2018-06-25T10:10:31.901Z,3.95
2018-06-25T10:13:01.460Z,3.40
2018-06-25T10:15:31.873Z,3.40
2018-06-25T10:18:01.492Z,3.42
2018-06-25T10:20:33.345Z,3.60
2018-06-25T10:23:04.442Z,3.55
2018-06-25T10:25:34.906Z,3.40
2018-06-25T10:28:05.809Z,3.25
2018-06-25T10:30:36.340Z,3.45
2018-06-25T10:33:06.273Z,3.40
2018-06-25T10:35:35.843Z,3.30
2018-06-25T10:38:04.898Z,3.10
2018-06-25T10:40:36.777Z,3.55
2018-06-25T10:43:06.532Z,3.33
2018-06-25T10:45:37.261Z,3.27
2018-06-25T10:48:08.189Z,3.22
2018-06-25T10:50:37.199Z,2.85
2018-06-25T10:53:06.633Z,3.30
2018-06-25T10:55:35.743Z,2.80
2018-06-25T10:58:06.046Z,2.83
2018-06-25T11:00:35.784Z,2.83
2018-06-25T11:03:07.409Z,2.35
2018-06-25T11:05:39.078Z,2.62
2018-06-25T11:08:10.170Z,2.92
2018-06-25T11:10:39.598Z,2.62
2018-06-25T11:13:09.899Z,2.77
2018-06-25T11:15:40.681Z,3.15
2018-06-25T11:18:10.395Z,3.00
2018-06-25T11:20:39.447Z,2.70
2018-06-25T11:23:10.504Z,3.40
2018-06-25T11:25:40.115Z,3.15
2018-06-25T11:28:11.098Z,3.37
2018-06-25T11:30:41.682Z,3.50
2018-06-25T11:33:12.485Z,2.80
2018-06-25T11:35:41.943Z,2.98
2018-06-25T11:38:13.011Z,3.08
2018-06-25T11:40:44.294Z,2.92
2018-06-25T11:43:13.297Z,3.15
2018-06-25T11:45:43.206Z,3.00
2018-06-25T11:48:12.623Z,3.17
2018-06-25T11:50:42.275Z,3.55
2018-06-25T11:53:12.373Z,3.12
2018-06-25T11:55:41.566Z,3.27
2018-06-25T11:58:12.540Z,3.40
2018-06-25T12:00:42.932Z,3.20
2018-06-25T12:03:13.185Z,3.00
2018-06-25T12:05:43.468Z,2.95
2018-06-25T12:08:14.440Z,2.95
2018-06-25T12:10:43.762Z,3.02
2018-06-25T12:13:14.160Z,2.98
2018-06-25T12:15:44.507Z,2.65
2018-06-25T12:18:13.482Z,3.02
2018-06-25T12:20:45.382Z,2.98
2018-06-25T12:23:16.689Z,2.72
2018-06-25T12:25:46.311Z,3.25
2018-06-25T12:28:17.147Z,2.92
2018-06-25T12:30:46.171Z,2.98
2018-06-25T12:33:17.505Z,2.87
2018-06-25T12:35:47.788Z,2.77
2018-06-25T12:38:19.686Z,2.80
2018-06-25T12:40:48.997Z,2.90
2018-06-25T12:43:18.523Z,3.15
2018-06-25T12:45:47.530Z,3.05
2018-06-25T12:48:18.375Z,2.92
2018-06-25T12:50:49.322Z,2.50
2018-06-25T12:53:19.534Z,2.95
2018-06-25T12:55:50.609Z,2.90
2018-06-25T12:58:19.523Z,3.15
2018-06-25T13:00:50.045Z,3.10
2018-06-25T13:03:20.796Z,3.00
2018-06-25T13:05:52.097Z,3.20
2018-06-25T13:08:21.770Z,3.37
2018-06-25T13:10:52.033Z,3.30
2018-06-25T13:13:23.070Z,3.60
2018-06-25T13:15:54.019Z,3.58
2018-06-25T13:18:23.226Z,4.03
2018-06-25T13:20:54.222Z,4.40
2018-06-25T13:23:23.198Z,3.70
2018-06-25T13:25:53.747Z,4.35
2018-06-25T13:28:25.253Z,4.12
2018-06-25T13:30:55.826Z,4.42
2018-06-25T13:33:27.146Z,4.28
2018-06-25T13:35:57.947Z,3.95
2018-06-25T13:38:27.547Z,4.35
2018-06-25T13:40:59.321Z,4.75
2018-06-25T13:43:31.003Z,4.30
2018-06-25T13:46:01.500Z,4.10
2018-06-25T13:48:33.487Z,5.00
2018-06-25T13:51:05.714Z,4.50
2018-06-25T13:53:36.519Z,4.33
2018-06-25T13:56:06.055Z,4.33
2018-06-25T13:58:36.207Z,4.60
2018-06-25T14:01:05.930Z,4.75
2018-06-25T14:03:36.146Z,4.58
2018-06-25T14:06:06.988Z,4.05
2018-06-25T14:08:36.587Z,4.30
2018-06-25T14:11:05.957Z,4.28
2018-06-25T14:13:35.695Z,4.25
2018-06-25T14:16:05.685Z,5.95
2018-06-25T14:18:34.957Z,4.50
2018-06-25T14:21:05.084Z,4.72
2018-06-25T14:23:36.643Z,4.20
2018-06-25T14:26:07.802Z,4.97
2018-06-25T14:28:38.133Z,4.70
2018-06-25T14:31:12.100Z,4.95
2018-06-25T14:33:44.834Z,4.55
2018-06-25T14:36:14.619Z,4.70
2018-06-25T14:38:43.569Z,5.03
2018-06-25T14:41:15.075Z,5.05
2018-06-25T14:43:44.927Z,4.62
2018-06-25T14:46:14.859Z,4.47
2018-06-25T14:48:44.602Z,4.62
2018-06-25T14:51:13.925Z,4.08
2018-06-25T14:53:45.643Z,4.25
2018-06-25T14:56:15.458Z,4.47
2018-06-25T14:58:45.159Z,4.20
2018-06-25T15:01:17.104Z,4.08
2018-06-25T15:03:48.900Z,4.58
2018-06-25T15:06:18.118Z,4.50
2018-06-25T15:08:47.569Z,4.47
2018-06-25T15:11:19.463Z,4.30
2018-06-25T15:13:49.923Z,4.50
2018-06-25T15:16:20.219Z,4.30
2018-06-25T15:18:50.535Z,4.17
2018-06-25T15:21:20.011Z,4.40
2018-06-25T15:23:51.073Z,4.35
2018-06-25T15:26:22.206Z,4.42
2018-06-25T15:28:52.131Z,4.15
2018-06-25T15:31:22.326Z,4.62
2018-06-25T15:33:51.402Z,4.12
2018-06-25T15:36:22.259Z,4.45
2018-06-25T15:38:51.888Z,4.42
2018-06-25T15:41:22.547Z,3.80
2018-06-25T15:43:52.092Z,3.85
2018-06-25T15:46:22.834Z,4.03
2018-06-25T15:48:52.487Z,3.85
2018-06-25T15:51:22.263Z,4.05
2018-06-25T15:53:52.110Z,3.98
2018-06-25T15:56:21.142Z,4.12
2018-06-25T15:58:51.977Z,4.10
2018-06-25T16:01:23.873Z,4.17
2018-06-25T16:03:54.538Z,3.98
2018-06-25T16:06:24.602Z,3.90
2018-06-25T16:08:54.169Z,3.80
2018-06-25T16:11:25.997Z,3.62
2018-06-25T16:13:56.455Z,4.83
2018-06-25T16:16:26.868Z,3.25
2018-06-25T16:18:55.970Z,3.65
2018-06-25T16:21:26.711Z,3.42
2018-06-25T16:23:56.601Z,3.45
2018-06-25T16:26:26.494Z,3.58
2018-06-25T16:28:56.314Z,3.60
2018-06-25T16:31:26.443Z,3.52
2018-06-25T16:33:55.582Z,3.30
2018-06-25T16:36:25.185Z,3.80
2018-06-25T16:38:55.518Z,6.28
2018-06-25T16:41:25.545Z,3.87
2018-06-25T16:43:56.306Z,3.42
2018-06-25T16:46:25.675Z,3.75
2018-06-25T16:48:56.630Z,3.87
2018-06-25T16:51:26.453Z,3.90
2018-06-25T16:53:56.885Z,3.40
2018-06-25T16:56:25.982Z,3.52
2018-06-25T16:58:55.714Z,3.72
2018-06-25T17:01:26.611Z,4.00
2018-06-25T17:03:56.254Z,3.80
2018-06-25T17:06:25.979Z,3.62
2018-06-25T17:08:56.131Z,3.90
2018-06-25T17:11:26.040Z,4.05
2018-06-25T17:13:56.076Z,4.12
2018-06-25T17:16:26.169Z,4.40
2018-06-25T17:18:55.053Z,4.03
2018-06-25T17:21:24.229Z,3.83
2018-06-25T17:23:54.175Z,3.83
2018-06-25T17:26:26.216Z,3.83
2018-06-25T17:28:55.773Z,3.80
2018-06-25T17:31:25.623Z,4.12
2018-06-25T17:33:56.492Z,3.90
2018-06-25T17:36:26.868Z,3.62
2018-06-25T17:52:00.963Z,3.15
2018-06-25T17:54:29.732Z,3.33
2018-06-25T17:56:59.920Z,3.70
2018-06-25T17:59:29.005Z,3.65
2018-06-25T18:02:00.542Z,3.47
2018-06-25T18:04:29.509Z,3.72
2018-06-25T18:06:59.699Z,3.40
2018-06-25T18:09:30.052Z,3.10
2018-06-25T18:12:00.162Z,3.33
2018-06-25T18:14:29.039Z,3.30
2018-06-25T18:16:59.109Z,3.62
2018-06-25T18:19:29.734Z,2.85
2018-06-25T18:22:00.420Z,3.22
2018-06-25T18:24:30.768Z,3.20
2018-06-25T18:27:00.129Z,3.30
2018-06-25T18:29:30.206Z,2.90
2018-06-25T18:31:59.167Z,3.40
2018-06-25T18:34:28.837Z,2.75
2018-06-25T18:36:57.676Z,2.90
2018-06-25T18:39:28.416Z,2.98
2018-06-25T18:41:59.006Z,3.08
2018-06-25T18:44:30.262Z,3.20
2018-06-25T18:46:59.299Z,3.45
2018-06-25T18:49:29.190Z,3.30
2018-06-25T18:51:58.177Z,3.17
2018-06-25T18:54:29.051Z,3.05
2018-06-25T18:56:59.142Z,2.40
2018-06-25T18:59:30.116Z,2.70
2018-06-25T19:02:00.029Z,2.52
2018-06-25T19:04:32.459Z,2.37
2018-06-25T19:07:02.971Z,2.10
2018-06-25T19:09:32.488Z,2.20
2018-06-25T19:12:02.732Z,2.35
2018-06-25T19:14:31.909Z,2.20
2018-06-25T19:17:03.858Z,2.37
2018-06-25T19:19:34.786Z,2.60
2018-06-25T19:22:04.767Z,2.50
2018-06-25T19:24:33.627Z,2.60
2018-06-25T19:27:04.798Z,2.55
2018-06-25T19:29:34.305Z,2.58
2018-06-25T19:32:03.869Z,2.40
2018-06-25T19:34:33.058Z,2.67
2018-06-25T19:37:02.907Z,2.60
2018-06-25T19:39:32.427Z,2.35
2018-06-25T19:42:01.763Z,2.50
2018-06-25T19:44:33.316Z,2.58
2018-06-25T19:47:04.517Z,2.10
2018-06-25T19:49:33.417Z,2.30
2018-06-25T19:52:03.083Z,2.37
2018-06-25T19:54:34.619Z,2.50
2018-06-25T19:57:06.633Z,2.17
2018-06-25T19:59:35.960Z,2.00
2018-06-25T20:02:06.348Z,2.50
2018-06-25T20:04:35.302Z,2.40
2018-06-25T20:07:06.049Z,2.30
2018-06-25T20:09:36.891Z,2.37
2018-06-25T20:12:05.866Z,1.98
2018-06-25T20:14:38.496Z,2.33
2018-06-25T20:17:07.591Z,2.20
2018-06-25T20:19:38.024Z,2.30
2018-06-25T20:22:07.744Z,2.47
2018-06-25T20:24:38.165Z,2.60
2018-06-25T20:27:08.161Z,3.80
2018-06-25T20:29:37.878Z,2.67
2018-06-25T20:32:09.313Z,2.47
2018-06-25T20:34:40.449Z,2.40
2018-06-25T20:37:10.740Z,2.42
2018-06-25T20:39:41.265Z,2.60
2018-06-25T20:42:11.417Z,2.40
2018-06-25T20:44:41.831Z,2.50
2018-06-25T20:47:11.078Z,2.40
2018-06-25T20:49:42.121Z,2.25
2018-06-25T20:52:11.953Z,2.30
2018-06-25T20:54:42.138Z,2.37
2018-06-25T20:57:13.506Z,2.70
2018-06-25T20:59:43.377Z,2.60
2018-06-25T21:02:15.408Z,2.45
2018-06-25T21:04:45.475Z,2.58
2018-06-25T21:07:16.202Z,2.12
2018-06-25T21:09:45.808Z,2.50
2018-06-25T21:12:14.835Z,2.37
2018-06-25T21:14:45.604Z,2.00
2018-06-25T21:17:16.714Z,1.87
2018-06-25T21:19:46.042Z,1.98
2018-06-25T21:22:17.191Z,2.20
2018-06-25T21:24:49.193Z,2.08
2018-06-25T21:27:20.173Z,2.35
2018-06-25T21:29:50.044Z,2.17
2018-06-25T21:32:19.807Z,1.80
2018-06-25T21:34:49.764Z,1.98
2018-06-25T21:37:19.390Z,2.05
2018-06-25T21:39:49.621Z,1.85
2018-06-25T21:42:20.555Z,2.37
2018-06-25T21:44:50.083Z,2.67
2018-06-25T21:47:20.664Z,2.17
2018-06-25T21:49:50.574Z,2.30
2018-06-25T21:52:19.459Z,2.37
2018-06-25T21:54:50.914Z,2.35
2018-06-25T21:57:21.327Z,2.37
2018-06-25T21:59:51.513Z,2.40
2018-06-25T22:02:22.661Z,2.72
2018-06-25T22:04:52.959Z,1.85
2018-06-25T22:07:21.885Z,2.25
2018-06-25T22:09:52.343Z,2.02
2018-06-25T22:12:21.808Z,2.05
2018-06-25T22:14:53.322Z,2.50
2018-06-25T22:17:24.827Z,2.10
2018-06-25T22:19:53.956Z,2.15
2018-06-25T22:22:24.094Z,2.25
2018-06-25T22:24:56.488Z,3.00
2018-06-25T22:27:26.306Z,2.87
2018-06-25T22:29:55.318Z,3.10
2018-06-25T22:32:25.558Z,2.77
2018-06-25T22:34:56.658Z,2.62
2018-06-25T22:37:26.338Z,2.27
2018-06-25T22:39:55.166Z,2.10
2018-06-25T22:42:25.951Z,2.20
2018-06-25T22:44:56.448Z,2.25
2018-06-25T22:47:25.415Z,2.10
2018-06-25T22:49:55.928Z,2.40
2018-06-25T22:52:26.718Z,2.17
2018-06-25T22:54:55.767Z,2.42
2018-06-25T22:57:26.962Z,2.25
2018-06-25T22:59:57.158Z,2.47
2018-06-25T23:02:27.732Z,2.77
2018-06-25T23:04:58.723Z,3.02
2018-06-25T23:07:28.434Z,3.12
2018-06-25T23:09:57.283Z,3.00
2018-06-25T23:12:27.641Z,3.37
2018-06-25T23:14:57.409Z,3.58
2018-06-25T23:17:29.199Z,2.92
2018-06-25T23:19:59.507Z,3.50
2018-06-25T23:22:30.269Z,3.40
2018-06-25T23:24:59.235Z,4.03
2018-06-25T23:27:28.947Z,3.22
2018-06-25T23:29:58.955Z,4.12
2018-06-25T23:32:28.508Z,3.85
2018-06-25T23:34:58.724Z,3.50
2018-06-25T23:37:27.671Z,3.70
2018-06-25T23:39:57.867Z,4.08
2018-06-25T23:42:27.867Z,3.75
2018-06-25T23:44:58.782Z,3.77
2018-06-25T23:47:27.743Z,4.42
2018-06-25T23:49:57.220Z,4.00
2018-06-25T23:52:28.956Z,4.20
2018-06-25T23:54:57.917Z,4.37
2018-06-25T23:57:28.680Z,4.10
2018-06-25T23:59:58.238Z,4.17
